sensor_id;sensor_type;location;lat;lon;timestamp;P1;durP1;ratioP1;P2;durP2;ratioP2
25962;SDS011;13760;52.588;13.406;2023-04-03T00:00:46;6.30;;;1.90;;
25962;SDS011;13760;52.588;13.406;2023-04-03T00:03:14;7.38;;;2.10;;
25962;SDS011;13760;52.588;13.406;2023-04-03T00:05:40;10.68;;;2.10;;
25962;SDS011;13760;52.588;13.406;2023-04-03T00:08:06;8.85;;;2.30;;
25962;SDS011;13760;52.588;13.406;2023-04-03T00:10:33;8.98;;;2.00;;
25962;SDS011;13760;52.588;13.406;2023-04-03T00:12:59;10.32;;;2.08;;
25962;SDS011;13760;52.588;13.406;2023-04-03T00:15:24;8.52;;;2.72;;
25962;SDS011;13760;52.588;13.406;2023-04-03T00:17:50;7.97;;;1.90;;
25962;SDS011;13760;52.588;13.406;2023-04-03T00:20:15;8.15;;;1.88;;
25962;SDS011;13760;52.588;13.406;2023-04-03T00:22:41;12.90;;;2.10;;
25962;SDS011;13760;52.588;13.406;2023-04-03T00:25:07;11.18;;;2.50;;
25962;SDS011;13760;52.588;13.406;2023-04-03T00:27:33;9.65;;;2.22;;
25962;SDS011;13760;52.588;13.406;2023-04-03T00:30:00;11.40;;;2.10;;
25962;SDS011;13760;52.588;13.406;2023-04-03T00:32:26;8.57;;;1.92;;
25962;SDS011;13760;52.588;13.406;2023-04-03T00:34:51;12.40;;;2.17;;
25962;SDS011;13760;52.588;13.406;2023-04-03T00:37:17;13.07;;;2.05;;
25962;SDS011;13760;52.588;13.406;2023-04-03T00:39:42;5.93;;;1.85;;
25962;SDS011;13760;52.588;13.406;2023-04-03T00:42:08;5.18;;;2.15;;
25962;SDS011;13760;52.588;13.406;2023-04-03T00:46:59;10.52;;;2.25;;
25962;SDS011;13760;52.588;13.406;2023-04-03T00:49:26;8.90;;;1.92;;
25962;SDS011;13760;52.588;13.406;2023-04-03T00:51:53;9.05;;;2.15;;
25962;SDS011;13760;52.588;13.406;2023-04-03T00:54:20;10.40;;;2.20;;
25962;SDS011;13760;52.588;13.406;2023-04-03T00:56:46;6.63;;;2.03;;
25962;SDS011;13760;52.588;13.406;2023-04-03T00:59:13;7.43;;;1.90;;
25962;SDS011;13760;52.588;13.406;2023-04-03T01:01:42;9.38;;;2.15;;
25962;SDS011;13760;52.588;13.406;2023-04-03T01:04:26;9.32;;;2.03;;
25962;SDS011;13760;52.588;13.406;2023-04-03T01:06:57;10.25;;;2.15;;
25962;SDS011;13760;52.588;13.406;2023-04-03T01:09:34;8.20;;;2.33;;
25962;SDS011;13760;52.588;13.406;2023-04-03T01:15:10;6.70;;;1.85;;
25962;SDS011;13760;52.588;13.406;2023-04-03T01:17:45;6.47;;;1.75;;
25962;SDS011;13760;52.588;13.406;2023-04-03T01:22:59;7.65;;;1.73;;
25962;SDS011;13760;52.588;13.406;2023-04-03T01:25:48;7.15;;;2.00;;
25962;SDS011;13760;52.588;13.406;2023-04-03T01:28:20;11.52;;;2.38;;
25962;SDS011;13760;52.588;13.406;2023-04-03T01:33:25;9.15;;;2.53;;
25962;SDS011;13760;52.588;13.406;2023-04-03T01:35:50;7.40;;;2.00;;
25962;SDS011;13760;52.588;13.406;2023-04-03T01:38:16;6.38;;;1.88;;
25962;SDS011;13760;52.588;13.406;2023-04-03T01:40:41;8.48;;;2.45;;
25962;SDS011;13760;52.588;13.406;2023-04-03T01:43:07;8.75;;;2.25;;
25962;SDS011;13760;52.588;13.406;2023-04-03T01:45:33;9.90;;;2.05;;
25962;SDS011;13760;52.588;13.406;2023-04-03T01:47:58;8.10;;;2.20;;
25962;SDS011;13760;52.588;13.406;2023-04-03T01:50:24;7.88;;;2.05;;
25962;SDS011;13760;52.588;13.406;2023-04-03T01:52:50;10.10;;;2.08;;
25962;SDS011;13760;52.588;13.406;2023-04-03T01:55:15;8.82;;;2.30;;
25962;SDS011;13760;52.588;13.406;2023-04-03T01:57:41;7.07;;;2.17;;
25962;SDS011;13760;52.588;13.406;2023-04-03T02:00:07;4.88;;;1.77;;
25962;SDS011;13760;52.588;13.406;2023-04-03T02:02:33;6.65;;;1.98;;
25962;SDS011;13760;52.588;13.406;2023-04-03T02:04:58;14.23;;;2.30;;
25962;SDS011;13760;52.588;13.406;2023-04-03T02:07:24;5.45;;;2.10;;
25962;SDS011;13760;52.588;13.406;2023-04-03T02:09:49;8.02;;;2.67;;
25962;SDS011;13760;52.588;13.406;2023-04-03T02:12:15;9.85;;;2.22;;
25962;SDS011;13760;52.588;13.406;2023-04-03T02:14:40;7.35;;;2.03;;
25962;SDS011;13760;52.588;13.406;2023-04-03T02:17:06;9.10;;;1.90;;
25962;SDS011;13760;52.588;13.406;2023-04-03T02:19:33;5.45;;;2.00;;
25962;SDS011;13760;52.588;13.406;2023-04-03T02:22:00;8.73;;;2.00;;
25962;SDS011;13760;52.588;13.406;2023-04-03T02:24:27;8.18;;;2.35;;
25962;SDS011;13760;52.588;13.406;2023-04-03T02:26:52;10.50;;;2.17;;
25962;SDS011;13760;52.588;13.406;2023-04-03T02:29:18;6.13;;;1.90;;
25962;SDS011;13760;52.588;13.406;2023-04-03T02:31:44;14.35;;;2.38;;
25962;SDS011;13760;52.588;13.406;2023-04-03T02:34:09;10.18;;;2.13;;
25962;SDS011;13760;52.588;13.406;2023-04-03T02:36:35;13.50;;;2.72;;
25962;SDS011;13760;52.588;13.406;2023-04-03T02:39:00;12.15;;;2.22;;
25962;SDS011;13760;52.588;13.406;2023-04-03T02:41:26;7.95;;;1.92;;
25962;SDS011;13760;52.588;13.406;2023-04-03T02:43:58;8.52;;;2.17;;
25962;SDS011;13760;52.588;13.406;2023-04-03T02:46:24;10.50;;;2.40;;
25962;SDS011;13760;52.588;13.406;2023-04-03T02:48:49;12.45;;;2.20;;
25962;SDS011;13760;52.588;13.406;2023-04-03T02:51:15;10.13;;;2.50;;
25962;SDS011;13760;52.588;13.406;2023-04-03T02:53:41;9.35;;;2.33;;
25962;SDS011;13760;52.588;13.406;2023-04-03T02:56:06;14.50;;;2.20;;
25962;SDS011;13760;52.588;13.406;2023-04-03T02:58:32;6.47;;;1.77;;
25962;SDS011;13760;52.588;13.406;2023-04-03T03:00:57;13.15;;;2.45;;
25962;SDS011;13760;52.588;13.406;2023-04-03T03:03:23;8.20;;;2.08;;
25962;SDS011;13760;52.588;13.406;2023-04-03T03:05:48;9.13;;;2.28;;
25962;SDS011;13760;52.588;13.406;2023-04-03T03:08:14;11.75;;;2.72;;
25962;SDS011;13760;52.588;13.406;2023-04-03T03:10:39;5.38;;;2.28;;
25962;SDS011;13760;52.588;13.406;2023-04-03T03:13:05;10.15;;;2.70;;
25962;SDS011;13760;52.588;13.406;2023-04-03T03:15:30;13.35;;;2.45;;
25962;SDS011;13760;52.588;13.406;2023-04-03T03:17:56;7.60;;;2.28;;
25962;SDS011;13760;52.588;13.406;2023-04-03T03:20:22;11.82;;;2.17;;
25962;SDS011;13760;52.588;13.406;2023-04-03T03:22:47;7.50;;;2.20;;
25962;SDS011;13760;52.588;13.406;2023-04-03T03:25:13;8.73;;;2.47;;
25962;SDS011;13760;52.588;13.406;2023-04-03T03:27:38;10.57;;;2.10;;
25962;SDS011;13760;52.588;13.406;2023-04-03T03:30:04;7.28;;;1.92;;
25962;SDS011;13760;52.588;13.406;2023-04-03T03:32:30;10.23;;;2.20;;
25962;SDS011;13760;52.588;13.406;2023-04-03T03:34:56;10.48;;;2.05;;
25962;SDS011;13760;52.588;13.406;2023-04-03T03:37:21;8.00;;;2.40;;
25962;SDS011;13760;52.588;13.406;2023-04-03T03:39:47;14.57;;;2.33;;
25962;SDS011;13760;52.588;13.406;2023-04-03T03:42:12;10.43;;;2.60;;
25962;SDS011;13760;52.588;13.406;2023-04-03T03:44:38;6.70;;;2.58;;
25962;SDS011;13760;52.588;13.406;2023-04-03T03:47:03;6.75;;;2.70;;
25962;SDS011;13760;52.588;13.406;2023-04-03T03:49:31;7.78;;;2.28;;
25962;SDS011;13760;52.588;13.406;2023-04-03T03:51:56;11.77;;;3.15;;
25962;SDS011;13760;52.588;13.406;2023-04-03T03:54:22;9.02;;;2.33;;
25962;SDS011;13760;52.588;13.406;2023-04-03T03:56:47;10.73;;;2.40;;
25962;SDS011;13760;52.588;13.406;2023-04-03T03:59:13;11.50;;;2.35;;
25962;SDS011;13760;52.588;13.406;2023-04-03T04:01:38;9.75;;;2.50;;
25962;SDS011;13760;52.588;13.406;2023-04-03T04:04:04;12.20;;;3.10;;
25962;SDS011;13760;52.588;13.406;2023-04-03T04:06:30;7.25;;;2.30;;
25962;SDS011;13760;52.588;13.406;2023-04-03T04:08:55;12.48;;;2.60;;
25962;SDS011;13760;52.588;13.406;2023-04-03T04:11:21;11.15;;;2.58;;
25962;SDS011;13760;52.588;13.406;2023-04-03T04:13:47;9.90;;;2.47;;
25962;SDS011;13760;52.588;13.406;2023-04-03T04:16:12;12.90;;;2.30;;
25962;SDS011;13760;52.588;13.406;2023-04-03T04:18:38;12.57;;;2.60;;
25962;SDS011;13760;52.588;13.406;2023-04-03T04:21:03;8.40;;;2.35;;
25962;SDS011;13760;52.588;13.406;2023-04-03T04:23:29;9.13;;;1.95;;
25962;SDS011;13760;52.588;13.406;2023-04-03T04:25:54;7.55;;;1.95;;
25962;SDS011;13760;52.588;13.406;2023-04-03T04:28:20;7.53;;;1.90;;
25962;SDS011;13760;52.588;13.406;2023-04-03T04:30:45;7.43;;;2.10;;
25962;SDS011;13760;52.588;13.406;2023-04-03T04:33:11;9.82;;;1.85;;
25962;SDS011;13760;52.588;13.406;2023-04-03T04:35:38;8.73;;;2.08;;
25962;SDS011;13760;52.588;13.406;2023-04-03T04:38:04;8.38;;;1.90;;
25962;SDS011;13760;52.588;13.406;2023-04-03T04:40:30;9.02;;;2.17;;
25962;SDS011;13760;52.588;13.406;2023-04-03T04:42:56;6.47;;;2.10;;
25962;SDS011;13760;52.588;13.406;2023-04-03T04:45:21;7.45;;;2.03;;
25962;SDS011;13760;52.588;13.406;2023-04-03T04:47:47;8.57;;;1.88;;
25962;SDS011;13760;52.588;13.406;2023-04-03T04:50:12;10.23;;;2.20;;
25962;SDS011;13760;52.588;13.406;2023-04-03T04:52:38;10.52;;;1.98;;
25962;SDS011;13760;52.588;13.406;2023-04-03T04:55:04;7.55;;;2.72;;
25962;SDS011;13760;52.588;13.406;2023-04-03T04:57:30;9.65;;;2.35;;
25962;SDS011;13760;52.588;13.406;2023-04-03T04:59:55;10.43;;;2.80;;
25962;SDS011;13760;52.588;13.406;2023-04-03T05:02:21;11.55;;;3.03;;
25962;SDS011;13760;52.588;13.406;2023-04-03T05:04:46;10.13;;;3.00;;
25962;SDS011;13760;52.588;13.406;2023-04-03T05:07:14;11.70;;;3.13;;
25962;SDS011;13760;52.588;13.406;2023-04-03T05:09:40;10.60;;;3.05;;
25962;SDS011;13760;52.588;13.406;2023-04-03T05:12:07;8.68;;;3.25;;
25962;SDS011;13760;52.588;13.406;2023-04-03T05:14:32;12.90;;;3.03;;
25962;SDS011;13760;52.588;13.406;2023-04-03T05:16:58;8.07;;;2.47;;
25962;SDS011;13760;52.588;13.406;2023-04-03T05:19:23;12.02;;;2.40;;
25962;SDS011;13760;52.588;13.406;2023-04-03T05:21:49;7.78;;;2.78;;
25962;SDS011;13760;52.588;13.406;2023-04-03T05:24:14;10.27;;;3.10;;
25962;SDS011;13760;52.588;13.406;2023-04-03T05:26:41;9.77;;;3.25;;
25962;SDS011;13760;52.588;13.406;2023-04-03T05:29:07;15.00;;;2.95;;
25962;SDS011;13760;52.588;13.406;2023-04-03T05:31:32;8.90;;;2.70;;
25962;SDS011;13760;52.588;13.406;2023-04-03T05:33:58;14.38;;;2.85;;
25962;SDS011;13760;52.588;13.406;2023-04-03T05:36:24;9.07;;;2.70;;
25962;SDS011;13760;52.588;13.406;2023-04-03T05:38:50;6.35;;;2.58;;
25962;SDS011;13760;52.588;13.406;2023-04-03T05:41:17;4.68;;;1.70;;
25962;SDS011;13760;52.588;13.406;2023-04-03T05:43:42;6.30;;;2.00;;
25962;SDS011;13760;52.588;13.406;2023-04-03T05:46:09;10.35;;;2.00;;
25962;SDS011;13760;52.588;13.406;2023-04-03T05:48:36;9.50;;;2.15;;
25962;SDS011;13760;52.588;13.406;2023-04-03T05:51:02;9.90;;;2.38;;
25962;SDS011;13760;52.588;13.406;2023-04-03T05:53:28;11.15;;;2.40;;
25962;SDS011;13760;52.588;13.406;2023-04-03T05:55:56;13.13;;;2.50;;
25962;SDS011;13760;52.588;13.406;2023-04-03T05:58:22;7.00;;;2.25;;
25962;SDS011;13760;52.588;13.406;2023-04-03T06:00:48;4.55;;;1.95;;
25962;SDS011;13760;52.588;13.406;2023-04-03T06:03:13;7.20;;;2.28;;
25962;SDS011;13760;52.588;13.406;2023-04-03T06:05:39;8.00;;;2.20;;
25962;SDS011;13760;52.588;13.406;2023-04-03T06:08:04;13.95;;;2.70;;
25962;SDS011;13760;52.588;13.406;2023-04-03T06:10:30;12.60;;;1.98;;
25962;SDS011;13760;52.588;13.406;2023-04-03T06:12:56;7.80;;;2.50;;
25962;SDS011;13760;52.588;13.406;2023-04-03T06:15:22;11.23;;;2.08;;
25962;SDS011;13760;52.588;13.406;2023-04-03T06:17:47;8.50;;;2.45;;
25962;SDS011;13760;52.588;13.406;2023-04-03T06:20:13;7.55;;;2.25;;
25962;SDS011;13760;52.588;13.406;2023-04-03T06:22:39;5.78;;;2.17;;
25962;SDS011;13760;52.588;13.406;2023-04-03T06:25:05;4.75;;;1.98;;
25962;SDS011;13760;52.588;13.406;2023-04-03T06:27:32;11.73;;;2.15;;
25962;SDS011;13760;52.588;13.406;2023-04-03T06:29:57;7.22;;;1.90;;
25962;SDS011;13760;52.588;13.406;2023-04-03T06:32:23;12.43;;;2.40;;
25962;SDS011;13760;52.588;13.406;2023-04-03T06:34:48;9.40;;;2.03;;
25962;SDS011;13760;52.588;13.406;2023-04-03T06:37:15;8.00;;;1.95;;
25962;SDS011;13760;52.588;13.406;2023-04-03T06:39:43;10.35;;;1.70;;
25962;SDS011;13760;52.588;13.406;2023-04-03T06:42:08;5.65;;;1.63;;
25962;SDS011;13760;52.588;13.406;2023-04-03T06:44:34;6.70;;;2.08;;
25962;SDS011;13760;52.588;13.406;2023-04-03T06:47:00;8.55;;;1.75;;
25962;SDS011;13760;52.588;13.406;2023-04-03T06:49:26;7.68;;;1.90;;
25962;SDS011;13760;52.588;13.406;2023-04-03T06:51:51;9.00;;;1.58;;
25962;SDS011;13760;52.588;13.406;2023-04-03T06:54:17;9.75;;;1.45;;
25962;SDS011;13760;52.588;13.406;2023-04-03T06:56:43;5.25;;;1.60;;
25962;SDS011;13760;52.588;13.406;2023-04-03T06:59:09;7.60;;;1.77;;
25962;SDS011;13760;52.588;13.406;2023-04-03T07:01:35;7.57;;;1.90;;
25962;SDS011;13760;52.588;13.406;2023-04-03T07:04:01;4.57;;;1.38;;
25962;SDS011;13760;52.588;13.406;2023-04-03T07:06:26;4.90;;;1.40;;
25962;SDS011;13760;52.588;13.406;2023-04-03T07:08:52;7.00;;;1.52;;
25962;SDS011;13760;52.588;13.406;2023-04-03T07:11:18;8.02;;;2.10;;
25962;SDS011;13760;52.588;13.406;2023-04-03T07:13:43;5.40;;;1.52;;
25962;SDS011;13760;52.588;13.406;2023-04-03T07:16:09;5.03;;;1.30;;
25962;SDS011;13760;52.588;13.406;2023-04-03T07:18:35;7.95;;;1.15;;
25962;SDS011;13760;52.588;13.406;2023-04-03T07:21:01;10.00;;;1.77;;
25962;SDS011;13760;52.588;13.406;2023-04-03T07:23:27;6.10;;;1.38;;
25962;SDS011;13760;52.588;13.406;2023-04-03T07:25:53;5.78;;;1.50;;
25962;SDS011;13760;52.588;13.406;2023-04-03T07:28:20;8.10;;;1.73;;
25962;SDS011;13760;52.588;13.406;2023-04-03T07:30:51;6.68;;;1.30;;
25962;SDS011;13760;52.588;13.406;2023-04-03T07:33:18;5.22;;;1.27;;
25962;SDS011;13760;52.588;13.406;2023-04-03T07:35:45;6.50;;;1.50;;
25962;SDS011;13760;52.588;13.406;2023-04-03T07:38:11;5.55;;;1.30;;
25962;SDS011;13760;52.588;13.406;2023-04-03T07:40:37;7.28;;;2.03;;
25962;SDS011;13760;52.588;13.406;2023-04-03T07:43:03;3.75;;;1.50;;
25962;SDS011;13760;52.588;13.406;2023-04-03T07:45:29;6.63;;;1.30;;
25962;SDS011;13760;52.588;13.406;2023-04-03T07:47:55;5.18;;;1.65;;
25962;SDS011;13760;52.588;13.406;2023-04-03T07:50:20;9.02;;;1.67;;
25962;SDS011;13760;52.588;13.406;2023-04-03T07:55:31;9.05;;;1.60;;
25962;SDS011;13760;52.588;13.406;2023-04-03T07:57:57;2.72;;;1.23;;
25962;SDS011;13760;52.588;13.406;2023-04-03T08:00:22;5.30;;;1.40;;
25962;SDS011;13760;52.588;13.406;2023-04-03T08:02:49;5.90;;;1.20;;
25962;SDS011;13760;52.588;13.406;2023-04-03T08:05:17;7.47;;;1.40;;
25962;SDS011;13760;52.588;13.406;2023-04-03T08:07:44;5.10;;;1.55;;
25962;SDS011;13760;52.588;13.406;2023-04-03T08:10:10;6.70;;;1.50;;
25962;SDS011;13760;52.588;13.406;2023-04-03T08:12:36;5.85;;;1.20;;
25962;SDS011;13760;52.588;13.406;2023-04-03T08:15:02;4.03;;;1.10;;
25962;SDS011;13760;52.588;13.406;2023-04-03T08:17:28;4.38;;;1.30;;
25962;SDS011;13760;52.588;13.406;2023-04-03T08:19:53;6.65;;;1.63;;
25962;SDS011;13760;52.588;13.406;2023-04-03T08:22:19;5.00;;;1.63;;
25962;SDS011;13760;52.588;13.406;2023-04-03T08:24:45;5.40;;;1.40;;
25962;SDS011;13760;52.588;13.406;2023-04-03T08:27:10;5.85;;;1.20;;
25962;SDS011;13760;52.588;13.406;2023-04-03T08:29:36;5.38;;;1.27;;
25962;SDS011;13760;52.588;13.406;2023-04-03T08:32:03;7.70;;;2.30;;
25962;SDS011;13760;52.588;13.406;2023-04-03T08:34:34;3.13;;;1.48;;
25962;SDS011;13760;52.588;13.406;2023-04-03T08:37:00;7.20;;;1.60;;
25962;SDS011;13760;52.588;13.406;2023-04-03T08:39:26;10.93;;;1.40;;
25962;SDS011;13760;52.588;13.406;2023-04-03T08:41:52;7.97;;;1.63;;
25962;SDS011;13760;52.588;13.406;2023-04-03T08:47:13;5.13;;;1.50;;
25962;SDS011;13760;52.588;13.406;2023-04-03T08:49:59;6.65;;;1.35;;
25962;SDS011;13760;52.588;13.406;2023-04-03T08:52:31;5.22;;;2.50;;
25962;SDS011;13760;52.588;13.406;2023-04-03T08:55:20;4.57;;;1.33;;
25962;SDS011;13760;52.588;13.406;2023-04-03T08:57:47;4.72;;;1.38;;
25962;SDS011;13760;52.588;13.406;2023-04-03T09:00:20;5.82;;;1.40;;
25962;SDS011;13760;52.588;13.406;2023-04-03T09:02:51;6.18;;;1.63;;
25962;SDS011;13760;52.588;13.406;2023-04-03T09:08:18;8.95;;;1.65;;
25962;SDS011;13760;52.588;13.406;2023-04-03T09:10:52;6.97;;;1.38;;
25962;SDS011;13760;52.588;13.406;2023-04-03T09:13:53;4.43;;;1.30;;
25962;SDS011;13760;52.588;13.406;2023-04-03T09:24:38;5.78;;;1.40;;
25962;SDS011;13760;52.588;13.406;2023-04-03T09:27:04;8.45;;;1.40;;
25962;SDS011;13760;52.588;13.406;2023-04-03T09:29:33;3.03;;;1.10;;
25962;SDS011;13760;52.588;13.406;2023-04-03T09:32:11;4.90;;;1.50;;
25962;SDS011;13760;52.588;13.406;2023-04-03T09:35:03;2.75;;;1.20;;
25962;SDS011;13760;52.588;13.406;2023-04-03T09:37:40;3.60;;;1.27;;
25962;SDS011;13760;52.588;13.406;2023-04-03T09:40:28;2.75;;;0.98;;
25962;SDS011;13760;52.588;13.406;2023-04-03T09:42:58;5.53;;;1.30;;
25962;SDS011;13760;52.588;13.406;2023-04-03T09:48:04;4.72;;;1.42;;
25962;SDS011;13760;52.588;13.406;2023-04-03T09:53:03;3.78;;;1.33;;
25962;SDS011;13760;52.588;13.406;2023-04-03T09:55:50;5.07;;;1.30;;
25962;SDS011;13760;52.588;13.406;2023-04-03T09:58:26;4.78;;;1.30;;
25962;SDS011;13760;52.588;13.406;2023-04-03T10:00:55;7.50;;;1.50;;
25962;SDS011;13760;52.588;13.406;2023-04-03T10:03:30;5.78;;;1.27;;
25962;SDS011;13760;52.588;13.406;2023-04-03T10:05:59;4.05;;;1.23;;
25962;SDS011;13760;52.588;13.406;2023-04-03T10:08:28;6.07;;;1.38;;
25962;SDS011;13760;52.588;13.406;2023-04-03T10:13:54;6.03;;;1.38;;
25962;SDS011;13760;52.588;13.406;2023-04-03T10:16:41;3.78;;;1.23;;
25962;SDS011;13760;52.588;13.406;2023-04-03T10:21:55;3.10;;;1.10;;
25962;SDS011;13760;52.588;13.406;2023-04-03T10:24:36;3.40;;;1.15;;
25962;SDS011;13760;52.588;13.406;2023-04-03T10:27:27;2.70;;;1.20;;
25962;SDS011;13760;52.588;13.406;2023-04-03T10:32:48;3.88;;;1.20;;
25962;SDS011;13760;52.588;13.406;2023-04-03T10:35:20;3.38;;;1.30;;
25962;SDS011;13760;52.588;13.406;2023-04-03T10:46:52;3.63;;;1.10;;
25962;SDS011;13760;52.588;13.406;2023-04-03T10:51:55;6.93;;;1.10;;
25962;SDS011;13760;52.588;13.406;2023-04-03T10:57:26;4.70;;;1.30;;
25962;SDS011;13760;52.588;13.406;2023-04-03T10:59:59;3.90;;;1.15;;
25962;SDS011;13760;52.588;13.406;2023-04-03T11:02:28;1.80;;;0.95;;
25962;SDS011;13760;52.588;13.406;2023-04-03T11:05:04;5.15;;;1.30;;
25962;SDS011;13760;52.588;13.406;2023-04-03T11:07:38;4.40;;;1.00;;
25962;SDS011;13760;52.588;13.406;2023-04-03T11:10:30;2.67;;;1.23;;
25962;SDS011;13760;52.588;13.406;2023-04-03T11:13:10;4.18;;;1.25;;
25962;SDS011;13760;52.588;13.406;2023-04-03T11:15:39;4.00;;;1.00;;
25962;SDS011;13760;52.588;13.406;2023-04-03T11:18:06;3.58;;;1.25;;
25962;SDS011;13760;52.588;13.406;2023-04-03T11:20:37;6.28;;;1.65;;
25962;SDS011;13760;52.588;13.406;2023-04-03T11:25:44;2.92;;;1.33;;
25962;SDS011;13760;52.588;13.406;2023-04-03T11:28:13;3.67;;;1.20;;
25962;SDS011;13760;52.588;13.406;2023-04-03T11:33:43;3.70;;;1.20;;
25962;SDS011;13760;52.588;13.406;2023-04-03T11:36:33;2.58;;;1.20;;
25962;SDS011;13760;52.588;13.406;2023-04-03T11:39:17;3.03;;;1.15;;
25962;SDS011;13760;52.588;13.406;2023-04-03T11:41:45;5.47;;;2.00;;
25962;SDS011;13760;52.588;13.406;2023-04-03T11:44:32;6.38;;;2.03;;
25962;SDS011;13760;52.588;13.406;2023-04-03T11:47:01;5.15;;;1.80;;
25962;SDS011;13760;52.588;13.406;2023-04-03T11:55:34;3.20;;;0.95;;
25962;SDS011;13760;52.588;13.406;2023-04-03T12:08:24;5.10;;;1.83;;
25962;SDS011;13760;52.588;13.406;2023-04-03T12:16:28;5.40;;;1.30;;
25962;SDS011;13760;52.588;13.406;2023-04-03T12:19:13;6.20;;;1.33;;
25962;SDS011;13760;52.588;13.406;2023-04-03T12:24:27;4.13;;;1.20;;
25962;SDS011;13760;52.588;13.406;2023-04-03T12:43:28;4.90;;;1.02;;
25962;SDS011;13760;52.588;13.406;2023-04-03T12:46:15;2.50;;;1.27;;
25962;SDS011;13760;52.588;13.406;2023-04-03T12:51:09;6.13;;;1.30;;
25962;SDS011;13760;52.588;13.406;2023-04-03T12:53:39;2.75;;;1.17;;
25962;SDS011;13760;52.588;13.406;2023-04-03T12:56:24;4.72;;;1.20;;
25962;SDS011;13760;52.588;13.406;2023-04-03T12:58:51;2.00;;;0.95;;
25962;SDS011;13760;52.588;13.406;2023-04-03T13:01:23;5.07;;;1.30;;
25962;SDS011;13760;52.588;13.406;2023-04-03T13:06:20;5.32;;;1.40;;
25962;SDS011;13760;52.588;13.406;2023-04-03T13:08:52;4.30;;;1.75;;
25962;SDS011;13760;52.588;13.406;2023-04-03T13:11:21;3.90;;;1.10;;
25962;SDS011;13760;52.588;13.406;2023-04-03T13:13:55;4.07;;;1.30;;
25962;SDS011;13760;52.588;13.406;2023-04-03T13:16:21;4.93;;;1.45;;
25962;SDS011;13760;52.588;13.406;2023-04-03T13:18:50;3.55;;;1.40;;
25962;SDS011;13760;52.588;13.406;2023-04-03T13:21:18;3.15;;;1.48;;
25962;SDS011;13760;52.588;13.406;2023-04-03T13:23:56;6.55;;;1.10;;
25962;SDS011;13760;52.588;13.406;2023-04-03T13:26:28;3.00;;;1.23;;
25962;SDS011;13760;52.588;13.406;2023-04-03T13:28:59;2.13;;;1.30;;
25962;SDS011;13760;52.588;13.406;2023-04-03T13:31:32;3.53;;;1.20;;
25962;SDS011;13760;52.588;13.406;2023-04-03T13:34:05;3.53;;;1.17;;
25962;SDS011;13760;52.588;13.406;2023-04-03T13:36:57;4.63;;;1.45;;
25962;SDS011;13760;52.588;13.406;2023-04-03T13:39:26;1.83;;;1.10;;
25962;SDS011;13760;52.588;13.406;2023-04-03T13:41:55;3.35;;;1.10;;
25962;SDS011;13760;52.588;13.406;2023-04-03T13:46:52;4.85;;;1.45;;
25962;SDS011;13760;52.588;13.406;2023-04-03T13:51:51;2.28;;;1.00;;
25962;SDS011;13760;52.588;13.406;2023-04-03T13:54:28;2.20;;;1.10;;
25962;SDS011;13760;52.588;13.406;2023-04-03T13:57:03;4.15;;;1.20;;
25962;SDS011;13760;52.588;13.406;2023-04-03T13:59:38;4.43;;;1.50;;
25962;SDS011;13760;52.588;13.406;2023-04-03T14:04:30;5.28;;;1.40;;
25962;SDS011;13760;52.588;13.406;2023-04-03T14:07:18;3.10;;;1.40;;
25962;SDS011;13760;52.588;13.406;2023-04-03T14:09:44;2.92;;;1.20;;
25962;SDS011;13760;52.588;13.406;2023-04-03T14:12:15;4.43;;;1.00;;
25962;SDS011;13760;52.588;13.406;2023-04-03T14:14:56;3.97;;;1.67;;
25962;SDS011;13760;52.588;13.406;2023-04-03T14:17:23;3.78;;;1.45;;
25962;SDS011;13760;52.588;13.406;2023-04-03T14:19:51;2.53;;;1.48;;
25962;SDS011;13760;52.588;13.406;2023-04-03T14:22:25;3.58;;;1.42;;
25962;SDS011;13760;52.588;13.406;2023-04-03T14:24:53;6.53;;;1.60;;
25962;SDS011;13760;52.588;13.406;2023-04-03T14:27:25;3.42;;;1.42;;
25962;SDS011;13760;52.588;13.406;2023-04-03T14:29:54;4.07;;;1.65;;
25962;SDS011;13760;52.588;13.406;2023-04-03T14:32:22;2.92;;;1.15;;
25962;SDS011;13760;52.588;13.406;2023-04-03T14:34:49;4.53;;;1.65;;
25962;SDS011;13760;52.588;13.406;2023-04-03T14:37:16;5.47;;;1.42;;
25962;SDS011;13760;52.588;13.406;2023-04-03T14:39:47;4.40;;;1.45;;
25962;SDS011;13760;52.588;13.406;2023-04-03T14:42:14;3.33;;;1.25;;
25962;SDS011;13760;52.588;13.406;2023-04-03T14:44:42;4.07;;;1.38;;
25962;SDS011;13760;52.588;13.406;2023-04-03T14:47:14;3.53;;;1.48;;
25962;SDS011;13760;52.588;13.406;2023-04-03T14:49:43;5.28;;;1.50;;
25962;SDS011;13760;52.588;13.406;2023-04-03T14:52:20;3.28;;;1.38;;
25962;SDS011;13760;52.588;13.406;2023-04-03T14:54:49;2.73;;;1.10;;
25962;SDS011;13760;52.588;13.406;2023-04-03T14:57:15;6.07;;;1.50;;
25962;SDS011;13760;52.588;13.406;2023-04-03T14:59:42;4.10;;;1.50;;
25962;SDS011;13760;52.588;13.406;2023-04-03T15:04:58;7.18;;;1.45;;
25962;SDS011;13760;52.588;13.406;2023-04-03T15:07:26;5.68;;;1.60;;
25962;SDS011;13760;52.588;13.406;2023-04-03T15:09:53;4.95;;;1.70;;
25962;SDS011;13760;52.588;13.406;2023-04-03T15:12:21;6.07;;;1.80;;
25962;SDS011;13760;52.588;13.406;2023-04-03T15:14:47;6.10;;;1.60;;
25962;SDS011;13760;52.588;13.406;2023-04-03T15:17:17;6.30;;;1.55;;
25962;SDS011;13760;52.588;13.406;2023-04-03T15:19:45;5.60;;;1.65;;
25962;SDS011;13760;52.588;13.406;2023-04-03T15:22:18;3.63;;;1.15;;
25962;SDS011;13760;52.588;13.406;2023-04-03T15:24:45;6.53;;;1.50;;
25962;SDS011;13760;52.588;13.406;2023-04-03T15:27:11;4.25;;;1.23;;
25962;SDS011;13760;52.588;13.406;2023-04-03T15:29:38;6.40;;;1.20;;
25962;SDS011;13760;52.588;13.406;2023-04-03T15:32:05;4.57;;;1.35;;
25962;SDS011;13760;52.588;13.406;2023-04-03T15:34:31;5.82;;;1.40;;
25962;SDS011;13760;52.588;13.406;2023-04-03T15:36:56;5.68;;;1.20;;
25962;SDS011;13760;52.588;13.406;2023-04-03T15:39:22;4.93;;;1.75;;
25962;SDS011;13760;52.588;13.406;2023-04-03T15:41:50;3.17;;;1.05;;
25962;SDS011;13760;52.588;13.406;2023-04-03T15:44:16;5.93;;;1.48;;
25962;SDS011;13760;52.588;13.406;2023-04-03T15:46:42;6.50;;;1.55;;
25962;SDS011;13760;52.588;13.406;2023-04-03T15:49:09;5.68;;;1.77;;
25962;SDS011;13760;52.588;13.406;2023-04-03T15:51:35;6.10;;;1.73;;
25962;SDS011;13760;52.588;13.406;2023-04-03T15:54:01;3.92;;;1.42;;
25962;SDS011;13760;52.588;13.406;2023-04-03T15:56:26;6.32;;;1.40;;
25962;SDS011;13760;52.588;13.406;2023-04-03T15:58:52;4.82;;;1.40;;
25962;SDS011;13760;52.588;13.406;2023-04-03T16:01:17;4.22;;;1.65;;
25962;SDS011;13760;52.588;13.406;2023-04-03T16:03:43;7.97;;;1.40;;
25962;SDS011;13760;52.588;13.406;2023-04-03T16:06:11;8.57;;;1.40;;
25962;SDS011;13760;52.588;13.406;2023-04-03T16:08:40;6.32;;;1.52;;
25962;SDS011;13760;52.588;13.406;2023-04-03T16:11:06;5.10;;;1.42;;
25962;SDS011;13760;52.588;13.406;2023-04-03T16:13:32;7.20;;;1.92;;
25962;SDS011;13760;52.588;13.406;2023-04-03T16:15:58;5.15;;;1.40;;
25962;SDS011;13760;52.588;13.406;2023-04-03T16:18:25;5.38;;;1.70;;
25962;SDS011;13760;52.588;13.406;2023-04-03T16:20:51;3.28;;;1.30;;
25962;SDS011;13760;52.588;13.406;2023-04-03T16:23:17;8.70;;;1.73;;
25962;SDS011;13760;52.588;13.406;2023-04-03T16:25:43;3.22;;;1.25;;
25962;SDS011;13760;52.588;13.406;2023-04-03T16:28:12;7.32;;;1.55;;
25962;SDS011;13760;52.588;13.406;2023-04-03T16:30:39;6.88;;;1.70;;
25962;SDS011;13760;52.588;13.406;2023-04-03T16:33:06;3.85;;;1.42;;
25962;SDS011;13760;52.588;13.406;2023-04-03T16:35:31;8.52;;;1.70;;
25962;SDS011;13760;52.588;13.406;2023-04-03T16:37:57;3.00;;;1.42;;